Houma, Louisiana
Current Conditions -  °F | °C
As of 10:47 AM on Sunday 23 Nov 2014 (Local Time) from KHUM Reporting Station
Scattered Clouds Scattered Clouds  
Wind Chill: 68°   Ceiling: Unl
Heat Index: 68°   Visibility: 7mi
Dew Point: 63°   Wind: 17mph
Humidity: 83%   Direction: 200°SSW
Pressure: 29.72"   Gusts: 25mph
Location:  29.6°N, 90.72°W
Report Text: KHUM 231647Z 20015G22KT 7SM SCT035 20/17 A2972 RMK RY12/30 CLOSED ATIS C VA/RY18 MS
Loading
Personal Weather Stations






























Interactive Weather Map New forecast layout! Learn more

10-Day Weather Forecast

Advertisements
Track Severe Weather on mobile